Time;durP1;ratioP1;P1;durP2;ratioP2;P2;SDS_P1;SDS_P2;PMS_P1;PMS_P2;Temp;Humidity;BMP_temperature;BMP_pressure;BME280_temperature;BME280_humidity;BME280_pressure;Samples;Min_cycle;Max_cycle;Signal;HPM_P1;HPM_P2
2023/01/06 00:00:34;;;;;;;9.52;4.05;;;9.80;99.90;;;;;;5072045;28;20028;-79
2023/01/06 00:03:00;;;;;;;7.55;3.78;;;9.90;99.90;;;;;;5073501;28;20036;-80
2023/01/06 00:05:28;;;;;;;9.50;4.07;;;9.90;99.90;;;;;;5055888;28;20028;-79
2023/01/06 00:07:54;;;;;;;6.43;4.35;;;10.00;99.90;;;;;;5072826;28;20075;-79
2023/01/06 00:10:20;;;;;;;7.95;4.30;;;10.00;99.90;;;;;;5072287;28;20032;-79
2023/01/06 00:12:47;;;;;;;7.03;4.20;;;10.00;99.90;;;;;;5072967;28;20029;-78
2023/01/06 00:15:15;;;;;;;7.30;4.38;;;10.00;99.90;;;;;;5074166;28;20033;-80
2023/01/06 00:17:42;;;;;;;12.15;4.35;;;10.10;99.90;;;;;;5072906;28;20048;-77
2023/01/06 00:20:09;;;;;;;7.22;4.43;;;10.10;99.90;;;;;;5054225;28;20048;-77
2023/01/06 00:22:37;;;;;;;8.95;4.32;;;10.10;99.90;;;;;;5054829;28;20044;-77
2023/01/06 00:25:04;;;;;;;12.55;4.95;;;10.10;99.90;;;;;;5073431;28;20063;-77
2023/01/06 00:27:31;;;;;;;8.32;4.80;;;10.10;99.90;;;;;;5038636;28;20432;-77
2023/01/06 00:30:00;;;;;;;9.00;5.25;;;10.20;99.90;;;;;;5053509;28;20464;-77
2023/01/06 00:32:27;;;;;;;10.32;4.90;;;10.10;99.90;;;;;;5054686;28;20390;-76
2023/01/06 00:34:53;;;;;;;10.25;5.88;;;10.10;99.90;;;;;;5072356;28;20052;-77
2023/01/06 00:37:19;;;;;;;11.38;7.30;;;10.10;99.90;;;;;;5073051;28;20036;-76
2023/01/06 00:39:45;;;;;;;10.55;5.97;;;10.10;99.90;;;;;;5053497;28;20154;-77
2023/01/06 00:42:11;;;;;;;11.48;6.13;;;10.10;99.90;;;;;;5055021;28;20071;-76
2023/01/06 00:44:38;;;;;;;11.13;7.20;;;10.10;99.90;;;;;;5073280;28;20407;-78
2023/01/06 00:47:07;;;;;;;29.38;18.50;;;10.10;99.90;;;;;;5055376;28;20044;-78
2023/01/06 00:49:34;;;;;;;27.98;14.57;;;10.10;99.90;;;;;;5072203;28;20028;-78
2023/01/06 00:52:00;;;;;;;101.75;55.38;;;10.10;99.90;;;;;;5071806;28;20044;-78
2023/01/06 00:54:26;;;;;;;44.55;21.70;;;10.10;99.90;;;;;;5072918;28;20040;-77
2023/01/06 00:56:53;;;;;;;93.55;50.80;;;10.20;99.90;;;;;;5072127;28;20039;-78
2023/01/06 00:59:24;;;;;;;66.80;35.80;;;10.20;99.90;;;;;;5071187;28;20433;-77
2023/01/06 01:01:53;;;;;;;71.53;41.22;;;10.20;99.90;;;;;;5030348;28;20044;-77
2023/01/06 01:04:20;;;;;;;29.15;14.57;;;10.20;99.90;;;;;;5072755;28;20044;-77
2023/01/06 01:06:48;;;;;;;22.27;12.32;;;10.20;99.90;;;;;;5071458;28;20047;-78
2023/01/06 01:09:20;;;;;;;58.65;34.83;;;10.20;99.90;;;;;;5071514;28;20032;-78
2023/01/06 01:14:46;;;;;;;11.07;8.68;;;10.20;99.90;;;;;;5026948;28;20052;-78
2023/01/06 01:17:16;;;;;;;15.32;11.27;;;10.20;99.90;;;;;;5072089;28;20071;-77
2023/01/06 01:19:42;;;;;;;14.13;7.65;;;10.20;99.90;;;;;;5069997;28;20051;-76
2023/01/06 01:22:08;;;;;;;17.70;10.60;;;10.20;99.90;;;;;;5072208;28;20051;-78
2023/01/06 01:24:36;;;;;;;19.98;9.48;;;10.20;99.90;;;;;;5054409;28;20374;-78
2023/01/06 01:27:03;;;;;;;13.93;9.77;;;10.20;99.90;;;;;;5071117;28;20028;-77
2023/01/06 01:29:29;;;;;;;13.68;8.38;;;10.20;99.90;;;;;;5070291;28;20142;-78
2023/01/06 01:31:56;;;;;;;19.33;10.88;;;10.20;99.90;;;;;;5070824;28;20051;-78
2023/01/06 01:34:22;;;;;;;19.33;13.02;;;10.30;99.90;;;;;;5071908;28;20032;-78
2023/01/06 01:36:51;;;;;;;10.48;7.32;;;10.20;99.90;;;;;;5052869;28;20032;-79
2023/01/06 01:39:19;;;;;;;12.23;6.75;;;10.20;99.90;;;;;;5070542;28;20403;-79
2023/01/06 01:41:46;;;;;;;9.52;7.32;;;10.20;99.90;;;;;;5053334;28;20032;-75
2023/01/06 01:44:47;;;;;;;9.65;7.00;;;10.20;99.90;;;;;;5054317;28;20024;-75
2023/01/06 01:47:17;;;;;;;12.00;9.82;;;10.30;99.90;;;;;;5053763;28;20040;-77
2023/01/06 01:49:46;;;;;;;11.90;8.77;;;10.20;99.90;;;;;;5052184;28;20047;-76
2023/01/06 01:52:14;;;;;;;16.50;8.18;;;10.20;99.90;;;;;;5054250;28;20032;-78
2023/01/06 01:54:41;;;;;;;11.07;6.63;;;10.30;99.90;;;;;;5071649;28;20040;-78
2023/01/06 01:57:33;;;;;;;14.25;6.70;;;10.20;99.90;;;;;;5071467;28;20032;-75
2023/01/06 02:00:03;;;;;;;8.90;6.53;;;10.20;99.90;;;;;;5069621;28;20033;-75
2023/01/06 02:02:40;;;;;;;9.70;6.03;;;10.20;99.90;;;;;;5078248;28;20043;-78
2023/01/06 02:05:08;;;;;;;8.85;6.38;;;10.20;99.90;;;;;;5071645;28;20040;-75
2023/01/06 02:07:34;;;;;;;11.82;7.15;;;10.20;99.90;;;;;;5053538;28;20044;-75
2023/01/06 02:10:21;;;;;;;9.73;6.00;;;10.20;99.90;;;;;;5052106;28;20492;-78
2023/01/06 02:12:55;;;;;;;9.63;6.60;;;10.20;99.90;;;;;;5052863;28;20063;-76
2023/01/06 02:15:29;;;;;;;10.02;6.72;;;10.20;99.90;;;;;;5059402;28;20056;-77
2023/01/06 02:18:30;;;;;;;10.15;5.78;;;10.30;99.90;;;;;;5091964;28;20055;-76
2023/01/06 02:21:24;;;;;;;11.98;6.35;;;10.30;99.90;;;;;;5101742;28;20036;-75
2023/01/06 02:24:28;;;;;;;8.93;5.60;;;10.30;99.90;;;;;;5097139;28;20044;-76
2023/01/06 02:27:31;;;;;;;9.88;6.47;;;10.30;99.90;;;;;;5095023;28;20032;-75
2023/01/06 02:30:34;;;;;;;8.07;6.22;;;10.30;99.90;;;;;;5093727;28;20028;-75
2023/01/06 02:33:20;;;;;;;10.07;7.15;;;10.20;99.90;;;;;;5093028;28;20123;-75
2023/01/06 02:35:49;;;;;;;12.98;6.53;;;10.20;99.90;;;;;;5093194;28;20071;-77
2023/01/06 02:38:27;;;;;;;12.00;7.85;;;10.20;99.90;;;;;;5093541;28;20063;-75
2023/01/06 02:41:09;;;;;;;10.18;6.28;;;10.20;99.90;;;;;;5093647;28;20401;-74
2023/01/06 02:43:43;;;;;;;9.82;6.45;;;10.20;99.90;;;;;;5094899;28;20405;-75
2023/01/06 02:46:37;;;;;;;10.63;6.93;;;10.20;99.90;;;;;;5095011;28;20039;-77
2023/01/06 02:49:24;;;;;;;12.80;7.15;;;10.20;99.90;;;;;;5093097;28;20028;-78
2023/01/06 02:52:43;;;;;;;9.43;7.18;;;10.10;99.90;;;;;;5092762;28;20059;-74
2023/01/06 02:55:48;;;;;;;10.70;7.60;;;10.10;99.90;;;;;;5034276;28;20052;-75
2023/01/06 02:58:30;;;;;;;11.75;6.60;;;10.10;99.90;;;;;;5063138;28;20469;-74
2023/01/06 03:01:11;;;;;;;9.57;5.97;;;10.10;99.90;;;;;;5091477;28;20374;-76
2023/01/06 03:03:41;;;;;;;11.02;6.78;;;10.00;99.90;;;;;;5093196;28;20044;-75
2023/01/06 03:06:13;;;;;;;10.25;8.00;;;10.10;99.90;;;;;;5094195;28;20131;-75
2023/01/06 03:08:46;;;;;;;12.95;7.88;;;10.10;99.90;;;;;;5091889;28;20047;-79
2023/01/06 03:11:13;;;;;;;13.77;8.55;;;10.00;99.90;;;;;;5093185;28;20043;-76
2023/01/06 03:13:52;;;;;;;12.57;7.95;;;10.00;99.90;;;;;;5093283;28;20052;-76
2023/01/06 03:16:19;;;;;;;13.95;7.93;;;10.00;99.90;;;;;;5093137;28;20054;-75
2023/01/06 03:18:49;;;;;;;14.30;8.18;;;10.00;99.90;;;;;;5093287;28;20441;-80
2023/01/06 03:21:21;;;;;;;14.15;7.88;;;10.00;99.90;;;;;;5093057;28;20040;-75
2023/01/06 03:23:48;;;;;;;9.60;7.17;;;9.90;99.90;;;;;;5093290;28;20047;-75
2023/01/06 03:26:14;;;;;;;10.82;7.15;;;9.90;99.90;;;;;;5094471;28;20381;-75
2023/01/06 03:28:43;;;;;;;12.50;8.27;;;9.80;99.90;;;;;;5091205;28;20055;-79
2023/01/06 03:31:22;;;;;;;11.20;8.10;;;9.80;99.90;;;;;;5091847;28;20044;-75
2023/01/06 03:34:05;;;;;;;11.18;7.97;;;9.80;99.90;;;;;;5092387;28;20056;-75
2023/01/06 03:36:35;;;;;;;12.85;8.32;;;9.70;99.90;;;;;;5088267;28;20397;-75
2023/01/06 03:39:21;;;;;;;13.02;7.47;;;9.60;99.90;;;;;;5090935;28;20460;-75
2023/01/06 03:44:55;;;;;;;12.43;7.75;;;9.50;99.90;;;;;;5093798;28;20039;-80
2023/01/06 03:47:37;;;;;;;12.82;8.25;;;9.50;99.90;;;;;;5092431;28;20396;-75
2023/01/06 03:50:11;;;;;;;13.73;7.93;;;9.50;99.90;;;;;;5073389;28;20059;-75
2023/01/06 03:52:48;;;;;;;10.70;8.57;;;9.50;99.90;;;;;;5092668;28;20060;-75
2023/01/06 03:55:19;;;;;;;15.30;9.07;;;9.50;99.90;;;;;;5092412;28;20110;-74
2023/01/06 03:57:51;;;;;;;11.98;7.68;;;9.50;99.90;;;;;;5091789;28;20067;-77
2023/01/06 04:00:22;;;;;;;14.68;8.63;;;9.50;99.90;;;;;;5090813;28;20142;-76
2023/01/06 04:02:57;;;;;;;15.80;8.82;;;9.50;99.90;;;;;;5085320;28;20047;-75
2023/01/06 04:05:27;;;;;;;16.73;9.65;;;9.50;99.90;;;;;;5092167;28;20050;-75
2023/01/06 04:07:54;;;;;;;13.60;8.80;;;9.50;99.90;;;;;;5091798;28;20028;-75
2023/01/06 04:10:22;;;;;;;13.68;8.88;;;9.50;99.90;;;;;;5084537;28;20044;-75
2023/01/06 04:12:52;;;;;;;21.80;9.57;;;9.50;99.90;;;;;;5084897;28;20055;-76
2023/01/06 04:15:24;;;;;;;15.10;9.40;;;9.50;99.90;;;;;;5087497;28;20040;-76
2023/01/06 04:17:53;;;;;;;20.48;8.55;;;9.50;99.90;;;;;;5091751;28;20290;-75
2023/01/06 04:20:26;;;;;;;13.85;8.13;;;9.50;99.90;;;;;;5091024;28;20040;-76
2023/01/06 04:22:59;;;;;;;13.27;8.63;;;9.60;99.90;;;;;;5091381;28;20051;-75
2023/01/06 04:25:28;;;;;;;13.90;8.45;;;9.60;99.90;;;;;;5091871;28;20051;-75
2023/01/06 04:27:54;;;;;;;13.32;8.15;;;9.60;99.90;;;;;;5092530;28;20039;-75
2023/01/06 04:30:21;;;;;;;13.85;8.35;;;9.60;99.90;;;;;;5090499;28;20052;-75
2023/01/06 04:32:48;;;;;;;12.02;8.50;;;9.60;99.90;;;;;;5090503;28;20051;-79
2023/01/06 04:35:15;;;;;;;13.23;8.75;;;9.60;99.90;;;;;;5091695;28;20063;-75
2023/01/06 04:37:41;;;;;;;11.20;8.07;;;9.60;99.90;;;;;;5091299;28;20047;-75
2023/01/06 04:40:08;;;;;;;13.93;8.98;;;9.70;99.90;;;;;;5089145;28;20040;-75
2023/01/06 04:43:03;;;;;;;13.88;8.43;;;9.70;99.90;;;;;;5092621;28;20366;-75
2023/01/06 04:45:20;;;;;;;12.68;8.90;;;9.70;99.90;;;;;;5092766;28;20099;-75
2023/01/06 04:47:46;;;;;;;14.95;9.10;;;9.70;99.90;;;;;;5092610;28;20039;-79
2023/01/06 04:50:12;;;;;;;12.32;8.35;;;9.70;99.90;;;;;;5091083;28;20028;-75
2023/01/06 04:52:39;;;;;;;13.00;8.40;;;9.70;99.90;;;;;;5092680;28;20050;-76
2023/01/06 04:55:05;;;;;;;13.68;8.00;;;9.60;99.90;;;;;;5092345;28;20335;-76
2023/01/06 04:57:31;;;;;;;12.05;8.43;;;9.70;99.90;;;;;;5092319;28;20028;-77
2023/01/06 04:59:57;;;;;;;11.35;7.63;;;9.70;99.90;;;;;;5089162;28;20040;-77
2023/01/06 05:02:23;;;;;;;13.35;9.02;;;9.80;99.90;;;;;;5092896;28;20024;-76
2023/01/06 05:04:49;;;;;;;16.50;9.02;;;9.70;99.90;;;;;;5090441;28;20035;-80
2023/01/06 05:07:16;;;;;;;14.57;9.05;;;9.70;99.90;;;;;;5092613;28;20037;-76
2023/01/06 05:09:42;;;;;;;14.30;10.13;;;9.70;99.90;;;;;;5090899;28;20036;-76
2023/01/06 05:12:08;;;;;;;11.68;7.72;;;9.70;99.90;;;;;;5091814;28;20571;-76
2023/01/06 05:14:34;;;;;;;11.15;7.68;;;9.70;99.90;;;;;;5090967;28;20048;-75
2023/01/06 05:17:00;;;;;;;10.15;6.63;;;9.70;99.90;;;;;;5090092;28;20055;-75
2023/01/06 05:19:26;;;;;;;10.80;7.22;;;9.70;99.90;;;;;;5090198;28;20040;-75
2023/01/06 05:21:52;;;;;;;10.43;7.10;;;9.70;99.90;;;;;;5091539;28;20043;-76
2023/01/06 05:24:18;;;;;;;12.32;7.45;;;9.80;99.90;;;;;;5090728;28;20432;-75
2023/01/06 05:26:44;;;;;;;10.93;7.32;;;9.80;99.90;;;;;;5092281;28;20453;-76
2023/01/06 05:29:18;;;;;;;17.77;11.00;;;9.70;99.90;;;;;;5089895;28;20039;-76
2023/01/06 05:31:44;;;;;;;13.43;7.82;;;9.80;99.90;;;;;;5092063;28;20039;-77
2023/01/06 05:34:10;;;;;;;13.20;9.05;;;9.80;99.90;;;;;;5091276;28;20277;-77
2023/01/06 05:36:36;;;;;;;19.27;12.23;;;9.80;99.90;;;;;;5091673;28;20024;-78
2023/01/06 05:39:03;;;;;;;48.72;27.33;;;9.80;99.90;;;;;;5087732;28;20051;-78
2023/01/06 05:41:29;;;;;;;74.85;39.20;;;9.80;99.90;;;;;;5091802;28;20032;-79
2023/01/06 05:43:56;;;;;;;28.95;16.98;;;9.80;99.90;;;;;;5091097;28;20739;-80
2023/01/06 05:46:22;;;;;;;54.00;25.38;;;9.80;99.90;;;;;;5091621;28;20043;-80
2023/01/06 05:48:48;;;;;;;129.07;62.45;;;9.80;99.90;;;;;;5089996;28;20032;-82
2023/01/06 05:51:15;;;;;;;55.50;24.33;;;9.80;99.90;;;;;;5089974;28;20035;-80
2023/01/06 05:53:44;;;;;;;150.63;70.50;;;9.70;99.90;;;;;;5085222;28;20043;-80
2023/01/06 05:56:14;;;;;;;89.32;45.88;;;9.70;99.90;;;;;;5084461;28;20024;-80
2023/01/06 05:58:44;;;;;;;147.63;69.57;;;9.70;99.90;;;;;;5083279;28;20738;-81
2023/01/06 06:01:19;;;;;;;472.10;230.48;;;9.70;99.90;;;;;;5091486;28;20024;-81
2023/01/06 06:03:46;;;;;;;211.60;92.50;;;9.70;99.90;;;;;;5091876;28;20039;-81
2023/01/06 06:06:12;;;;;;;333.08;156.70;;;9.60;99.90;;;;;;5091617;28;20024;-80
2023/01/06 06:08:38;;;;;;;99.85;49.85;;;9.60;99.90;;;;;;5091300;28;20460;-81
2023/01/06 06:11:07;;;;;;;106.35;58.17;;;9.60;99.90;;;;;;5090713;28;20468;-80
2023/01/06 06:13:33;;;;;;;156.02;92.18;;;9.60;99.90;;;;;;5083921;28;20071;-81
2023/01/06 06:16:08;;;;;;;174.30;116.60;;;9.60;99.90;;;;;;5083605;28;20362;-80
2023/01/06 06:18:41;;;;;;;65.05;46.17;;;9.60;99.90;;;;;;5046724;28;20466;-81
2023/01/06 06:21:12;;;;;;;40.33;28.45;;;9.60;99.90;;;;;;5070981;28;20362;-81
2023/01/06 06:23:40;;;;;;;23.55;17.30;;;9.60;99.90;;;;;;5072041;28;20474;-80
2023/01/06 06:26:08;;;;;;;40.90;29.13;;;9.60;99.90;;;;;;5071514;28;20049;-80
2023/01/06 06:28:36;;;;;;;72.40;54.08;;;9.60;99.90;;;;;;5071924;28;20039;-80
2023/01/06 06:31:22;;;;;;;46.00;32.15;;;9.60;99.90;;;;;;5066543;28;20036;-79
2023/01/06 06:33:50;;;;;;;31.15;21.27;;;9.60;99.90;;;;;;5064281;28;20050;-81
2023/01/06 06:36:17;;;;;;;35.42;25.33;;;9.60;99.90;;;;;;5070037;28;20051;-79
2023/01/06 06:38:45;;;;;;;83.80;55.15;;;9.60;99.90;;;;;;5080277;28;20033;-80
2023/01/06 06:41:12;;;;;;;63.70;35.10;;;9.60;99.90;;;;;;5082028;28;20040;-80
2023/01/06 06:43:38;;;;;;;120.68;69.00;;;9.60;99.90;;;;;;5078385;28;20036;-81
2023/01/06 06:46:05;;;;;;;73.32;45.22;;;9.60;99.90;;;;;;5078714;28;20040;-81
2023/01/06 06:48:31;;;;;;;24.58;16.15;;;9.60;99.90;;;;;;5059208;28;20041;-80
2023/01/06 06:51:09;;;;;;;33.15;20.13;;;9.60;99.90;;;;;;5071491;28;20035;-81
2023/01/06 06:53:36;;;;;;;46.50;25.35;;;9.50;99.90;;;;;;5071798;28;20029;-80
2023/01/06 06:56:04;;;;;;;100.25;54.03;;;9.50;99.90;;;;;;5070066;28;20052;-81
2023/01/06 06:58:30;;;;;;;40.50;21.45;;;9.60;99.90;;;;;;5071646;28;20103;-78
2023/01/06 07:00:56;;;;;;;27.88;16.65;;;9.60;99.90;;;;;;5065360;28;20048;-81
2023/01/06 07:03:24;;;;;;;29.75;17.33;;;9.60;99.90;;;;;;5071610;28;20037;-81
2023/01/06 07:05:52;;;;;;;15.52;9.52;;;9.60;99.90;;;;;;5074076;28;20043;-81
2023/01/06 07:08:18;;;;;;;19.02;11.80;;;9.60;99.90;;;;;;5074663;28;20025;-81
2023/01/06 07:10:44;;;;;;;64.13;33.92;;;9.60;99.90;;;;;;5075385;28;20480;-81
2023/01/06 07:13:10;;;;;;;27.80;15.18;;;9.60;99.90;;;;;;5056685;28;20099;-79
2023/01/06 07:15:36;;;;;;;8.27;6.00;;;9.60;99.90;;;;;;5073574;28;20028;-80
2023/01/06 07:18:04;;;;;;;5.88;4.10;;;9.70;99.90;;;;;;5089008;28;20044;-80
2023/01/06 07:20:32;;;;;;;5.47;3.17;;;9.60;99.90;;;;;;5076222;28;20040;-80
2023/01/06 07:22:58;;;;;;;11.18;6.00;;;9.60;99.90;;;;;;5075830;28;20040;-80
2023/01/06 07:25:25;;;;;;;13.57;4.63;;;9.60;99.90;;;;;;5095432;28;20042;-81
2023/01/06 07:27:59;;;;;;;8.57;4.45;;;9.70;99.90;;;;;;5093545;28;20024;-81
2023/01/06 07:30:26;;;;;;;5.00;2.38;;;9.60;99.90;;;;;;5093789;28;20039;-78
2023/01/06 07:32:53;;;;;;;7.65;3.63;;;9.60;99.90;;;;;;5093548;28;20028;-82
2023/01/06 07:35:19;;;;;;;7.57;2.63;;;9.60;99.90;;;;;;5091440;28;20047;-79
2023/01/06 07:37:45;;;;;;;6.53;3.13;;;9.60;99.90;;;;;;5093081;28;20043;-80
2023/01/06 07:40:12;;;;;;;8.93;4.10;;;9.60;99.90;;;;;;5093891;28;20028;-81
2023/01/06 07:42:39;;;;;;;4.45;1.65;;;9.60;99.90;;;;;;5093734;28;20048;-80
2023/01/06 07:45:06;;;;;;;8.10;4.15;;;9.60;99.90;;;;;;5075047;28;20047;-78
2023/01/06 07:47:32;;;;;;;8.80;4.25;;;9.50;99.90;;;;;;5093152;28;20043;-80
2023/01/06 07:49:59;;;;;;;6.07;2.88;;;9.50;99.90;;;;;;5093233;28;20059;-80
2023/01/06 07:52:25;;;;;;;8.63;4.70;;;9.50;99.90;;;;;;5093127;28;20055;-82
2023/01/06 07:54:51;;;;;;;14.55;8.15;;;9.50;99.90;;;;;;5092572;28;20420;-80
2023/01/06 07:57:17;;;;;;;4.35;1.35;;;9.50;98.60;;;;;;5092126;28;20142;-83
2023/01/06 07:59:43;;;;;;;3.25;1.50;;;9.50;75.60;;;;;;5094192;28;20031;-82
2023/01/06 08:02:10;;;;;;;14.52;9.25;;;9.50;50.50;;;;;;5075634;28;20051;-81
2023/01/06 08:04:36;;;;;;;10.95;5.00;;;9.50;27.80;;;;;;5091379;28;20040;-79
2023/01/06 08:07:03;;;;;;;4.38;2.50;;;9.60;17.60;;;;;;5093193;28;20028;-80
2023/01/06 08:09:29;;;;;;;4.03;1.35;;;9.60;17.30;;;;;;5085317;28;20024;-79
2023/01/06 08:11:56;;;;;;;6.75;4.28;;;9.60;13.90;;;;;;5079959;28;20406;-83
2023/01/06 08:14:22;;;;;;;1.77;1.40;;;9.60;15.30;;;;;;5085655;28;20036;-79
2023/01/06 08:16:49;;;;;;;3.70;2.05;;;9.60;15.00;;;;;;5079703;28;20048;-79
2023/01/06 08:19:15;;;;;;;2.83;1.40;;;9.60;13.30;;;;;;5083480;28;20031;-79
2023/01/06 08:21:41;;;;;;;1.77;0.98;;;9.60;8.50;;;;;;5086107;28;20504;-79
2023/01/06 08:24:07;;;;;;;2.90;1.88;;;9.60;2.20;;;;;;5082505;28;20032;-79
2023/01/06 08:26:33;;;;;;;4.47;1.52;;;9.70;1.00;;;;;;5086876;28;20043;-79
2023/01/06 08:29:00;;;;;;;4.53;1.77;;;9.70;1.00;;;;;;5082770;28;20020;-78
2023/01/06 08:31:26;;;;;;;6.85;1.77;;;9.70;1.00;;;;;;5091874;28;20043;-78
2023/01/06 08:33:52;;;;;;;1.58;0.50;;;9.80;1.00;;;;;;5091996;28;20465;-79
2023/01/06 08:36:20;;;;;;;1.30;0.50;;;9.80;1.00;;;;;;5088941;28;20229;-78
2023/01/06 08:38:47;;;;;;;2.30;0.80;;;9.80;1.00;;;;;;5084128;28;20031;-78
2023/01/06 08:41:14;;;;;;;2.33;0.30;;;9.90;1.00;;;;;;5088904;28;20504;-79
2023/01/06 08:43:42;;;;;;;1.65;0.68;;;10.00;1.00;;;;;;5091042;28;20393;-79
2023/01/06 08:46:11;;;;;;;0.70;0.32;;;10.10;1.00;;;;;;5092228;28;20036;-78
2023/01/06 08:48:37;;;;;;;3.00;1.10;;;10.10;1.00;;;;;;5091441;28;20389;-78
2023/01/06 08:51:11;;;;;;;0.63;0.28;;;10.10;1.00;;;;;;5090918;28;20028;-78
2023/01/06 08:53:38;;;;;;;2.28;1.23;;;10.10;1.00;;;;;;5091574;28;20465;-78
2023/01/06 08:56:10;;;;;;;2.90;0.70;;;10.20;1.00;;;;;;5084842;28;20051;-82
2023/01/06 08:58:36;;;;;;;1.30;0.50;;;10.20;1.00;;;;;;5099540;28;20028;-77
2023/01/06 09:01:02;;;;;;;0.95;0.40;;;10.20;1.00;;;;;;5091195;28;20036;-78
2023/01/06 09:03:28;;;;;;;1.17;0.40;;;10.30;1.00;;;;;;5080466;28;20390;-76
2023/01/06 09:05:56;;;;;;;1.23;0.50;;;10.30;1.00;;;;;;5064290;28;20037;-79
2023/01/06 09:08:23;;;;;;;1.85;0.52;;;10.40;1.00;;;;;;5088746;28;20388;-77
2023/01/06 09:10:50;;;;;;;1.13;0.32;;;10.40;1.00;;;;;;5091132;28;20044;-77
2023/01/06 09:13:16;;;;;;;1.48;0.70;;;10.40;1.00;;;;;;5090738;28;20044;-77
2023/01/06 09:15:43;;;;;;;1.13;0.40;;;10.50;1.00;;;;;;5092848;28;20024;-77
2023/01/06 09:18:10;;;;;;;2.08;0.50;;;10.50;1.00;;;;;;5089825;28;20047;-78
2023/01/06 09:20:36;;;;;;;1.70;0.80;;;10.50;1.00;;;;;;5092878;28;20055;-80
2023/01/06 09:23:03;;;;;;;1.63;0.93;;;10.50;1.00;;;;;;5090498;28;20059;-80
2023/01/06 09:25:29;;;;;;;1.98;1.15;;;10.50;1.00;;;;;;5074715;28;20066;-77
2023/01/06 09:27:58;;;;;;;1.77;0.73;;;10.50;1.00;;;;;;5089759;28;20040;-78
2023/01/06 09:30:24;;;;;;;1.48;1.05;;;10.50;1.00;;;;;;5092582;28;20040;-78
2023/01/06 09:32:50;;;;;;;3.83;1.13;;;10.40;1.00;;;;;;5091045;28;20039;-78
2023/01/06 09:35:16;;;;;;;2.15;0.80;;;10.40;1.00;;;;;;5090272;28;20059;-77
2023/01/06 09:37:42;;;;;;;1.10;0.70;;;10.40;1.00;;;;;;5088085;28;20043;-78
2023/01/06 09:40:16;;;;;;;2.15;1.08;;;10.40;1.00;;;;;;5091808;28;20040;-77
2023/01/06 09:43:25;;;;;;;2.40;1.00;;;10.30;1.00;;;;;;5092475;28;20468;-76
2023/01/06 09:45:56;;;;;;;3.33;0.90;;;10.30;1.00;;;;;;5092199;28;20097;-79
2023/01/06 09:48:30;;;;;;;2.45;0.88;;;10.30;1.00;;;;;;5089893;28;20043;-77
2023/01/06 09:51:00;;;;;;;1.65;0.70;;;10.40;1.00;;;;;;5091179;28;20040;-77
2023/01/06 09:53:39;;;;;;;2.45;1.25;;;10.40;1.00;;;;;;5092616;28;20043;-77
2023/01/06 09:56:13;;;;;;;2.50;0.82;;;10.40;1.00;;;;;;5089839;28;20040;-77
2023/01/06 09:58:47;;;;;;;8.85;4.38;;;10.50;1.00;;;;;;5091109;28;20482;-77
2023/01/06 10:01:15;;;;;;;4.57;2.30;;;10.60;1.00;;;;;;5090562;28;20028;-77
2023/01/06 10:03:46;;;;;;;7.88;2.92;;;10.60;1.00;;;;;;5092234;28;20482;-76
2023/01/06 10:06:33;;;;;;;9.88;4.38;;;10.70;1.00;;;;;;5089864;28;20051;-79
2023/01/06 10:09:24;;;;;;;4.35;2.80;;;10.80;1.00;;;;;;5085612;28;20465;-77
2023/01/06 10:11:59;;;;;;;9.05;4.53;;;10.80;1.00;;;;;;5091282;28;20032;-77
2023/01/06 10:14:37;;;;;;;7.85;4.18;;;10.90;1.00;;;;;;5092313;28;20047;-78
2023/01/06 10:17:21;;;;;;;10.52;5.20;;;10.90;1.00;;;;;;5088935;28;20508;-77
2023/01/06 10:20:01;;;;;;;10.55;4.28;;;10.80;1.00;;;;;;5090998;28;20393;-77
2023/01/06 10:23:01;;;;;;;8.75;3.40;;;10.80;1.00;;;;;;5092090;28;20035;-77
2023/01/06 10:25:40;;;;;;;4.47;2.60;;;10.80;1.00;;;;;;5092066;28;20032;-78
2023/01/06 10:28:22;;;;;;;4.82;2.03;;;10.70;1.00;;;;;;5066903;28;20051;-78
2023/01/06 10:30:52;;;;;;;7.95;2.33;;;10.70;1.00;;;;;;5091970;28;20036;-76
2023/01/06 10:33:30;;;;;;;5.07;2.08;;;10.70;1.00;;;;;;5091717;28;20039;-77
2023/01/06 10:35:58;;;;;;;4.32;2.97;;;10.70;1.00;;;;;;5090830;28;20059;-78
2023/01/06 10:38:39;;;;;;;3.78;1.92;;;10.80;1.00;;;;;;5093895;28;20032;-77
2023/01/06 10:41:11;;;;;;;;;;;10.80;1.00;;;;;;5094705;28;20055;-77
2023/01/06 10:43:37;;;;;;;9.20;6.18;;;10.80;1.00;;;;;;5095692;28;19908;-77
2023/01/06 10:46:03;;;;;;;7.93;2.97;;;10.90;1.00;;;;;;5093985;28;20036;-80
2023/01/06 10:48:31;;;;;;;6.15;3.50;;;10.90;1.00;;;;;;5095705;28;20035;-77
2023/01/06 10:50:59;;;;;;;2.90;1.58;;;10.90;1.00;;;;;;5095459;28;20039;-77
2023/01/06 10:53:25;;;;;;;4.85;1.45;;;10.90;1.00;;;;;;5095548;28;20465;-77
2023/01/06 10:56:00;;;;;;;12.57;8.35;;;10.90;1.00;;;;;;5094172;28;20503;-79
2023/01/06 10:58:48;;;;;;;3.05;1.20;;;10.90;1.00;;;;;;5098283;28;20480;-77
2023/01/06 11:01:25;;;;;;;3.05;2.10;;;10.90;1.00;;;;;;5100522;28;20028;-77
2023/01/06 11:04:11;;;;;;;7.68;2.88;;;11.00;1.00;;;;;;5100100;28;20032;-77
2023/01/06 11:06:47;;;;;;;3.95;2.40;;;11.00;1.00;;;;;;5100687;28;20029;-78
2023/01/06 11:09:35;;;;;;;6.80;1.70;;;11.00;1.00;;;;;;5093635;28;20055;-77
2023/01/06 11:12:25;;;;;;;5.65;2.75;;;11.00;1.00;;;;;;5091235;28;20032;-81
2023/01/06 11:15:04;;;;;;;1.48;0.77;;;10.90;1.00;;;;;;5095931;28;20051;-76
2023/01/06 11:17:31;;;;;;;3.17;1.67;;;10.90;1.00;;;;;;5073891;28;20075;-77
2023/01/06 11:20:11;;;;;;;1.92;0.80;;;10.90;1.00;;;;;;5074903;28;20470;-77
2023/01/06 11:22:39;;;;;;;2.35;1.08;;;10.90;1.00;;;;;;5076350;28;20036;-77
2023/01/06 11:25:32;;;;;;;3.33;1.33;;;10.80;1.00;;;;;;5074605;28;20039;-78
2023/01/06 11:28:18;;;;;;;5.07;1.88;;;10.80;1.00;;;;;;5070170;28;20040;-78
2023/01/06 11:30:52;;;;;;;2.63;1.67;;;10.80;1.00;;;;;;5057093;28;20033;-78
2023/01/06 11:33:21;;;;;;;2.90;1.33;;;10.80;1.00;;;;;;5068584;28;20092;-77
2023/01/06 11:35:49;;;;;;;3.83;2.10;;;10.80;1.00;;;;;;5073946;28;20045;-77
2023/01/06 11:38:17;;;;;;;4.65;1.95;;;10.90;1.00;;;;;;5055764;28;20040;-77
2023/01/06 11:40:46;;;;;;;2.15;0.70;;;10.90;1.00;;;;;;5074412;28;20044;-77
2023/01/06 11:43:24;;;;;;;2.08;1.10;;;10.90;1.00;;;;;;5073483;28;20386;-79
2023/01/06 11:45:56;;;;;;;3.47;1.80;;;10.90;1.00;;;;;;5046334;28;20044;-83
2023/01/06 11:48:30;;;;;;;2.83;0.70;;;10.90;1.00;;;;;;5073198;28;20029;-78
2023/01/06 11:50:58;;;;;;;4.15;2.25;;;10.90;1.00;;;;;;5073799;28;20052;-77
2023/01/06 11:53:25;;;;;;;10.65;5.32;;;10.90;1.00;;;;;;5073482;28;20462;-75
2023/01/06 11:56:13;;;;;;;11.77;6.60;;;10.90;1.00;;;;;;5073949;28;20047;-78
2023/01/06 11:58:47;;;;;;;3.20;1.45;;;11.00;1.00;;;;;;5066144;28;20045;-78
2023/01/06 12:01:32;;;;;;;5.10;4.13;;;11.00;1.00;;;;;;5066628;28;20028;-79
2023/01/06 12:04:15;;;;;;;3.97;1.60;;;11.10;1.00;;;;;;5074294;28;20032;-79
2023/01/06 12:06:44;;;;;;;1.70;1.25;;;11.20;1.00;;;;;;5073716;28;20032;-79
2023/01/06 12:09:22;;;;;;;1.33;0.75;;;11.30;1.00;;;;;;5072543;28;20032;-78
2023/01/06 12:11:54;;;;;;;0.90;0.47;;;11.40;1.00;;;;;;5053696;28;20347;-79
2023/01/06 12:14:29;;;;;;;0.68;0.30;;;11.30;1.00;;;;;;5073457;28;20474;-79
2023/01/06 12:17:49;;;;;;;1.35;0.65;;;11.30;1.00;;;;;;5063523;28;20048;-79
2023/01/06 12:20:19;;;;;;;2.20;0.55;;;11.20;1.00;;;;;;5074080;28;20040;-81
2023/01/06 12:22:52;;;;;;;0.52;0.43;;;11.20;1.00;;;;;;5094237;28;20032;-80
2023/01/06 12:25:23;;;;;;;1.90;0.50;;;11.20;1.00;;;;;;5093325;28;20055;-79
2023/01/06 12:27:57;;;;;;;4.90;3.05;;;11.20;1.00;;;;;;5092340;28;20044;-79
2023/01/06 12:30:38;;;;;;;1.27;0.57;;;11.30;1.00;;;;;;5092245;28;20028;-79
2023/01/06 12:33:11;;;;;;;1.70;0.70;;;11.30;1.00;;;;;;5093252;28;20032;-80
2023/01/06 12:35:40;;;;;;;0.80;0.50;;;11.30;1.00;;;;;;5092461;28;20063;-81
2023/01/06 12:38:48;;;;;;;1.75;0.57;;;11.30;1.00;;;;;;5093367;28;20032;-82
2023/01/06 12:41:36;;;;;;;1.13;0.50;;;11.30;1.00;;;;;;5086728;28;20477;-81
2023/01/06 12:44:29;;;;;;;1.42;0.50;;;11.30;1.00;;;;;;5094469;28;20051;-83
2023/01/06 12:47:16;;;;;;;2.90;0.70;;;11.30;1.00;;;;;;5063548;28;20040;-84
2023/01/06 12:49:53;;;;;;;1.45;0.50;;;11.30;1.00;;;;;;5092195;28;20036;-80
2023/01/06 12:52:29;;;;;;;2.40;0.50;;;11.30;1.00;;;;;;5092153;28;20036;-80
2023/01/06 12:54:57;;;;;;;1.83;0.60;;;11.30;1.00;;;;;;5093554;28;20036;-80
2023/01/06 12:57:54;;;;;;;1.83;0.90;;;11.30;1.00;;;;;;5092975;28;20286;-80
2023/01/06 13:00:37;;;;;;;1.50;0.75;;;11.30;1.00;;;;;;5084129;28;20048;-80
2023/01/06 13:03:18;;;;;;;0.75;0.57;;;11.40;1.00;;;;;;5091288;28;20051;-81
2023/01/06 13:06:06;;;;;;;1.40;0.85;;;11.30;1.00;;;;;;5092085;28;20035;-81
2023/01/06 13:08:58;;;;;;;3.03;0.98;;;11.40;1.00;;;;;;5086013;28;20366;-79
2023/01/06 13:11:27;;;;;;;0.93;0.50;;;11.40;1.00;;;;;;5086542;28;20250;-79
2023/01/06 13:14:05;;;;;;;2.13;0.93;;;11.40;1.00;;;;;;5088671;28;20024;-80
2023/01/06 13:16:52;;;;;;;1.73;0.80;;;11.30;1.00;;;;;;5080949;28;20063;-81
2023/01/06 13:19:55;;;;;;;3.45;0.73;;;11.30;1.00;;;;;;5055106;28;20051;-81